sensor_id;sensor_type;location;lat;lon;timestamp;temperature;humidity
32877;DHT22;19226;51.600;8.034;2022-12-07T00:01:20;4.60;99.90
32877;DHT22;19226;51.600;8.034;2022-12-07T00:03:47;4.60;99.90
32877;DHT22;19226;51.600;8.034;2022-12-07T00:06:14;4.60;99.90
32877;DHT22;19226;51.600;8.034;2022-12-07T00:08:42;4.60;99.90
32877;DHT22;19226;51.600;8.034;2022-12-07T00:11:09;4.60;99.90
32877;DHT22;19226;51.600;8.034;2022-12-07T00:13:38;4.60;99.90
32877;DHT22;19226;51.600;8.034;2022-12-07T00:16:05;4.60;99.90
32877;DHT22;19226;51.600;8.034;2022-12-07T00:18:38;4.60;99.90
32877;DHT22;19226;51.600;8.034;2022-12-07T00:21:09;4.70;99.90
32877;DHT22;19226;51.600;8.034;2022-12-07T00:23:35;4.60;99.90
32877;DHT22;19226;51.600;8.034;2022-12-07T00:26:05;4.70;99.90
32877;DHT22;19226;51.600;8.034;2022-12-07T00:28:33;4.70;99.90
32877;DHT22;19226;51.600;8.034;2022-12-07T00:31:03;4.70;99.90
32877;DHT22;19226;51.600;8.034;2022-12-07T00:33:30;4.60;99.90
32877;DHT22;19226;51.600;8.034;2022-12-07T00:39:02;4.70;99.90
32877;DHT22;19226;51.600;8.034;2022-12-07T00:41:28;4.60;99.90
32877;DHT22;19226;51.600;8.034;2022-12-07T00:43:55;4.70;99.90
32877;DHT22;19226;51.600;8.034;2022-12-07T00:46:22;4.70;99.90
32877;DHT22;19226;51.600;8.034;2022-12-07T00:48:49;4.70;99.90
32877;DHT22;19226;51.600;8.034;2022-12-07T00:51:16;4.70;99.90
32877;DHT22;19226;51.600;8.034;2022-12-07T00:53:44;4.70;99.90
32877;DHT22;19226;51.600;8.034;2022-12-07T00:56:19;4.70;99.90
32877;DHT22;19226;51.600;8.034;2022-12-07T00:58:51;4.70;99.90
32877;DHT22;19226;51.600;8.034;2022-12-07T01:01:18;4.70;99.90
32877;DHT22;19226;51.600;8.034;2022-12-07T01:03:45;4.70;99.90
32877;DHT22;19226;51.600;8.034;2022-12-07T01:06:15;4.70;99.90
32877;DHT22;19226;51.600;8.034;2022-12-07T01:08:44;4.80;99.90
32877;DHT22;19226;51.600;8.034;2022-12-07T01:11:14;4.80;99.90
32877;DHT22;19226;51.600;8.034;2022-12-07T01:13:40;4.80;99.90
32877;DHT22;19226;51.600;8.034;2022-12-07T01:16:09;4.80;99.90
32877;DHT22;19226;51.600;8.034;2022-12-07T01:18:38;4.70;99.90
32877;DHT22;19226;51.600;8.034;2022-12-07T01:21:05;4.80;99.90
32877;DHT22;19226;51.600;8.034;2022-12-07T01:23:34;4.80;99.90
32877;DHT22;19226;51.600;8.034;2022-12-07T01:26:03;4.80;99.90
32877;DHT22;19226;51.600;8.034;2022-12-07T01:31:15;4.80;99.90
32877;DHT22;19226;51.600;8.034;2022-12-07T01:33:43;4.70;99.90
32877;DHT22;19226;51.600;8.034;2022-12-07T01:39:05;4.80;99.90
32877;DHT22;19226;51.600;8.034;2022-12-07T01:41:33;4.70;99.90
32877;DHT22;19226;51.600;8.034;2022-12-07T01:46:47;4.80;99.90
32877;DHT22;19226;51.600;8.034;2022-12-07T01:49:18;4.80;99.90
32877;DHT22;19226;51.600;8.034;2022-12-07T01:51:46;4.80;99.90
32877;DHT22;19226;51.600;8.034;2022-12-07T01:54:13;4.80;99.90
32877;DHT22;19226;51.600;8.034;2022-12-07T01:56:41;4.80;99.90
32877;DHT22;19226;51.600;8.034;2022-12-07T01:59:09;4.80;99.90
32877;DHT22;19226;51.600;8.034;2022-12-07T02:04:41;4.80;99.90
32877;DHT22;19226;51.600;8.034;2022-12-07T02:07:08;4.80;99.90
32877;DHT22;19226;51.600;8.034;2022-12-07T02:09:34;4.80;99.90
32877;DHT22;19226;51.600;8.034;2022-12-07T02:12:02;4.80;99.90
32877;DHT22;19226;51.600;8.034;2022-12-07T02:14:31;4.80;99.90
32877;DHT22;19226;51.600;8.034;2022-12-07T02:17:09;4.80;99.90
32877;DHT22;19226;51.600;8.034;2022-12-07T02:19:51;4.90;99.90
32877;DHT22;19226;51.600;8.034;2022-12-07T02:28:10;4.90;99.90
32877;DHT22;19226;51.600;8.034;2022-12-07T02:30:40;4.90;99.90
32877;DHT22;19226;51.600;8.034;2022-12-07T02:33:16;4.90;99.90
32877;DHT22;19226;51.600;8.034;2022-12-07T02:35:46;4.90;99.90
32877;DHT22;19226;51.600;8.034;2022-12-07T02:43:28;4.90;99.90
32877;DHT22;19226;51.600;8.034;2022-12-07T02:46:04;4.90;99.90
32877;DHT22;19226;51.600;8.034;2022-12-07T02:48:33;4.90;99.90
32877;DHT22;19226;51.600;8.034;2022-12-07T02:51:08;4.90;99.90
32877;DHT22;19226;51.600;8.034;2022-12-07T02:53:43;4.90;99.90
32877;DHT22;19226;51.600;8.034;2022-12-07T02:56:16;4.90;99.90
32877;DHT22;19226;51.600;8.034;2022-12-07T03:19:52;4.80;99.90
32877;DHT22;19226;51.600;8.034;2022-12-07T03:25:32;4.80;99.90
32877;DHT22;19226;51.600;8.034;2022-12-07T03:28:03;4.70;99.90
32877;DHT22;19226;51.600;8.034;2022-12-07T03:30:49;4.70;99.90
32877;DHT22;19226;51.600;8.034;2022-12-07T03:33:21;4.70;99.90
32877;DHT22;19226;51.600;8.034;2022-12-07T03:35:59;4.60;99.90
32877;DHT22;19226;51.600;8.034;2022-12-07T03:38:31;4.70;99.90
32877;DHT22;19226;51.600;8.034;2022-12-07T03:44:03;4.60;99.90
32877;DHT22;19226;51.600;8.034;2022-12-07T03:57:21;4.60;99.90
32877;DHT22;19226;51.600;8.034;2022-12-07T03:59:48;4.50;99.90
32877;DHT22;19226;51.600;8.034;2022-12-07T04:02:16;4.50;99.90
32877;DHT22;19226;51.600;8.034;2022-12-07T04:04:42;4.50;99.90
32877;DHT22;19226;51.600;8.034;2022-12-07T04:07:09;4.50;99.90
32877;DHT22;19226;51.600;8.034;2022-12-07T04:09:36;4.50;99.90
32877;DHT22;19226;51.600;8.034;2022-12-07T04:12:02;4.50;99.90
32877;DHT22;19226;51.600;8.034;2022-12-07T04:14:28;4.50;99.90
32877;DHT22;19226;51.600;8.034;2022-12-07T04:16:57;4.50;99.90
32877;DHT22;19226;51.600;8.034;2022-12-07T04:19:25;4.40;99.90
32877;DHT22;19226;51.600;8.034;2022-12-07T04:21:52;4.40;99.90
32877;DHT22;19226;51.600;8.034;2022-12-07T04:24:18;4.40;99.90
32877;DHT22;19226;51.600;8.034;2022-12-07T04:26:44;4.40;99.90
32877;DHT22;19226;51.600;8.034;2022-12-07T04:29:12;4.30;99.90
32877;DHT22;19226;51.600;8.034;2022-12-07T04:31:38;4.30;99.90
32877;DHT22;19226;51.600;8.034;2022-12-07T04:34:06;4.30;99.90
32877;DHT22;19226;51.600;8.034;2022-12-07T04:36:32;4.30;99.90
32877;DHT22;19226;51.600;8.034;2022-12-07T04:38:58;4.30;99.90
32877;DHT22;19226;51.600;8.034;2022-12-07T04:41:29;4.30;99.90
32877;DHT22;19226;51.600;8.034;2022-12-07T04:44:04;4.30;99.90
32877;DHT22;19226;51.600;8.034;2022-12-07T04:46:35;4.30;99.90
32877;DHT22;19226;51.600;8.034;2022-12-07T04:49:01;4.30;99.90
32877;DHT22;19226;51.600;8.034;2022-12-07T04:51:34;4.20;99.90
32877;DHT22;19226;51.600;8.034;2022-12-07T04:54:00;4.20;99.90
32877;DHT22;19226;51.600;8.034;2022-12-07T04:56:26;4.20;99.90
32877;DHT22;19226;51.600;8.034;2022-12-07T04:58:54;4.20;99.90
32877;DHT22;19226;51.600;8.034;2022-12-07T05:01:20;4.20;99.90
32877;DHT22;19226;51.600;8.034;2022-12-07T05:03:48;4.20;99.90
32877;DHT22;19226;51.600;8.034;2022-12-07T05:06:20;4.20;99.90
32877;DHT22;19226;51.600;8.034;2022-12-07T05:08:46;4.20;99.90
32877;DHT22;19226;51.600;8.034;2022-12-07T05:11:13;4.20;99.90
32877;DHT22;19226;51.600;8.034;2022-12-07T05:14:02;4.20;99.90
32877;DHT22;19226;51.600;8.034;2022-12-07T05:16:28;4.20;99.90
32877;DHT22;19226;51.600;8.034;2022-12-07T05:18:54;4.10;99.90
32877;DHT22;19226;51.600;8.034;2022-12-07T05:21:20;4.10;99.90
32877;DHT22;19226;51.600;8.034;2022-12-07T05:23:47;4.10;99.90
32877;DHT22;19226;51.600;8.034;2022-12-07T05:26:13;4.10;99.90
32877;DHT22;19226;51.600;8.034;2022-12-07T05:28:41;4.10;99.90
32877;DHT22;19226;51.600;8.034;2022-12-07T05:31:07;4.10;99.90
32877;DHT22;19226;51.600;8.034;2022-12-07T05:33:34;4.10;99.90
32877;DHT22;19226;51.600;8.034;2022-12-07T05:36:00;4.10;99.90
32877;DHT22;19226;51.600;8.034;2022-12-07T05:38:33;4.10;99.90
32877;DHT22;19226;51.600;8.034;2022-12-07T05:41:01;4.10;99.90
32877;DHT22;19226;51.600;8.034;2022-12-07T05:43:28;4.10;99.90
32877;DHT22;19226;51.600;8.034;2022-12-07T05:45:55;4.10;99.90
32877;DHT22;19226;51.600;8.034;2022-12-07T05:48:21;4.10;99.90
32877;DHT22;19226;51.600;8.034;2022-12-07T05:50:48;4.00;99.90
32877;DHT22;19226;51.600;8.034;2022-12-07T05:53:14;4.00;99.90
32877;DHT22;19226;51.600;8.034;2022-12-07T05:55:41;4.10;99.90
32877;DHT22;19226;51.600;8.034;2022-12-07T05:58:07;4.10;99.90
32877;DHT22;19226;51.600;8.034;2022-12-07T06:04:03;4.10;99.90
32877;DHT22;19226;51.600;8.034;2022-12-07T06:09:34;4.10;99.90
32877;DHT22;19226;51.600;8.034;2022-12-07T06:12:01;4.10;99.90
32877;DHT22;19226;51.600;8.034;2022-12-07T06:14:47;4.10;99.90
32877;DHT22;19226;51.600;8.034;2022-12-07T06:17:13;4.10;99.90
32877;DHT22;19226;51.600;8.034;2022-12-07T06:22:43;4.10;99.90
32877;DHT22;19226;51.600;8.034;2022-12-07T06:25:10;4.00;99.90
32877;DHT22;19226;51.600;8.034;2022-12-07T06:27:36;4.00;99.90
32877;DHT22;19226;51.600;8.034;2022-12-07T06:30:02;4.00;99.90
32877;DHT22;19226;51.600;8.034;2022-12-07T06:32:35;4.00;99.90
32877;DHT22;19226;51.600;8.034;2022-12-07T06:35:04;4.00;99.90
32877;DHT22;19226;51.600;8.034;2022-12-07T06:37:30;4.10;99.90
32877;DHT22;19226;51.600;8.034;2022-12-07T06:42:41;4.00;99.90
32877;DHT22;19226;51.600;8.034;2022-12-07T06:45:09;4.00;99.90
32877;DHT22;19226;51.600;8.034;2022-12-07T06:47:35;4.00;99.90
32877;DHT22;19226;51.600;8.034;2022-12-07T06:52:59;4.00;99.90
32877;DHT22;19226;51.600;8.034;2022-12-07T06:57:56;4.00;99.90
32877;DHT22;19226;51.600;8.034;2022-12-07T07:00:22;4.00;99.90
32877;DHT22;19226;51.600;8.034;2022-12-07T07:02:54;4.10;99.90
32877;DHT22;19226;51.600;8.034;2022-12-07T07:05:20;4.00;99.90
32877;DHT22;19226;51.600;8.034;2022-12-07T07:07:49;4.10;99.90
32877;DHT22;19226;51.600;8.034;2022-12-07T07:10:17;4.00;99.90
32877;DHT22;19226;51.600;8.034;2022-12-07T07:15:28;4.00;99.90
32877;DHT22;19226;51.600;8.034;2022-12-07T07:17:54;4.00;99.90
32877;DHT22;19226;51.600;8.034;2022-12-07T07:23:05;4.00;99.90
32877;DHT22;19226;51.600;8.034;2022-12-07T07:25:31;4.10;99.90
32877;DHT22;19226;51.600;8.034;2022-12-07T07:27:57;4.00;99.90
32877;DHT22;19226;51.600;8.034;2022-12-07T07:30:25;4.10;99.90
32877;DHT22;19226;51.600;8.034;2022-12-07T07:32:51;4.00;99.90
32877;DHT22;19226;51.600;8.034;2022-12-07T07:38:20;4.00;99.90
32877;DHT22;19226;51.600;8.034;2022-12-07T07:40:46;4.00;99.90
32877;DHT22;19226;51.600;8.034;2022-12-07T07:43:14;4.00;99.90
32877;DHT22;19226;51.600;8.034;2022-12-07T07:45:40;4.00;99.90
32877;DHT22;19226;51.600;8.034;2022-12-07T07:48:07;4.00;99.90
32877;DHT22;19226;51.600;8.034;2022-12-07T07:50:35;4.00;99.90
32877;DHT22;19226;51.600;8.034;2022-12-07T07:53:04;4.00;99.90
32877;DHT22;19226;51.600;8.034;2022-12-07T07:55:30;4.00;99.90
32877;DHT22;19226;51.600;8.034;2022-12-07T07:57:55;4.00;99.90
32877;DHT22;19226;51.600;8.034;2022-12-07T08:00:25;4.00;99.90
32877;DHT22;19226;51.600;8.034;2022-12-07T08:02:51;4.00;99.90
32877;DHT22;19226;51.600;8.034;2022-12-07T08:08:02;4.00;99.90
32877;DHT22;19226;51.600;8.034;2022-12-07T08:13:56;4.00;99.90
32877;DHT22;19226;51.600;8.034;2022-12-07T08:16:22;3.90;99.90
32877;DHT22;19226;51.600;8.034;2022-12-07T08:18:50;4.00;99.90
32877;DHT22;19226;51.600;8.034;2022-12-07T08:21:16;4.00;99.90
32877;DHT22;19226;51.600;8.034;2022-12-07T08:23:42;3.90;99.90
32877;DHT22;19226;51.600;8.034;2022-12-07T08:28:54;3.90;99.90
32877;DHT22;19226;51.600;8.034;2022-12-07T08:31:27;3.90;99.90
32877;DHT22;19226;51.600;8.034;2022-12-07T08:33:54;3.90;99.90
32877;DHT22;19226;51.600;8.034;2022-12-07T08:36:20;4.00;99.90
32877;DHT22;19226;51.600;8.034;2022-12-07T08:38:48;4.00;99.90
32877;DHT22;19226;51.600;8.034;2022-12-07T08:43:59;4.00;99.90
32877;DHT22;19226;51.600;8.034;2022-12-07T08:49:34;4.10;99.90
32877;DHT22;19226;51.600;8.034;2022-12-07T08:51:58;4.10;99.90
32877;DHT22;19226;51.600;8.034;2022-12-07T08:54:25;4.10;99.90
32877;DHT22;19226;51.600;8.034;2022-12-07T08:56:51;4.10;99.90
32877;DHT22;19226;51.600;8.034;2022-12-07T08:59:18;4.20;99.90
32877;DHT22;19226;51.600;8.034;2022-12-07T09:01:44;4.20;99.90
32877;DHT22;19226;51.600;8.034;2022-12-07T09:04:12;4.20;99.90
32877;DHT22;19226;51.600;8.034;2022-12-07T09:06:40;4.20;99.90
32877;DHT22;19226;51.600;8.034;2022-12-07T09:09:06;4.20;99.90
32877;DHT22;19226;51.600;8.034;2022-12-07T09:11:33;4.30;99.90
32877;DHT22;19226;51.600;8.034;2022-12-07T09:16:47;4.30;99.90
32877;DHT22;19226;51.600;8.034;2022-12-07T09:19:23;4.30;99.90
32877;DHT22;19226;51.600;8.034;2022-12-07T09:21:49;4.30;99.90
32877;DHT22;19226;51.600;8.034;2022-12-07T09:24:16;4.30;99.90
32877;DHT22;19226;51.600;8.034;2022-12-07T09:26:42;4.30;99.90
32877;DHT22;19226;51.600;8.034;2022-12-07T09:29:10;4.30;99.90
32877;DHT22;19226;51.600;8.034;2022-12-07T09:31:36;4.30;99.90
32877;DHT22;19226;51.600;8.034;2022-12-07T09:34:02;4.30;99.90
32877;DHT22;19226;51.600;8.034;2022-12-07T09:36:30;4.30;99.90
32877;DHT22;19226;51.600;8.034;2022-12-07T09:38:57;4.30;99.90
32877;DHT22;19226;51.600;8.034;2022-12-07T09:41:23;4.40;99.90
32877;DHT22;19226;51.600;8.034;2022-12-07T09:43:49;4.40;99.90
32877;DHT22;19226;51.600;8.034;2022-12-07T09:46:19;4.40;99.90
32877;DHT22;19226;51.600;8.034;2022-12-07T09:48:45;4.50;99.90
32877;DHT22;19226;51.600;8.034;2022-12-07T09:51:19;4.60;99.90
32877;DHT22;19226;51.600;8.034;2022-12-07T09:53:45;4.70;99.90
32877;DHT22;19226;51.600;8.034;2022-12-07T09:56:13;4.70;99.90
32877;DHT22;19226;51.600;8.034;2022-12-07T09:58:40;4.80;99.90
32877;DHT22;19226;51.600;8.034;2022-12-07T10:01:11;4.80;99.90
32877;DHT22;19226;51.600;8.034;2022-12-07T10:03:38;4.90;99.90
32877;DHT22;19226;51.600;8.034;2022-12-07T10:06:07;4.90;99.90
32877;DHT22;19226;51.600;8.034;2022-12-07T10:08:33;5.00;99.90
32877;DHT22;19226;51.600;8.034;2022-12-07T10:11:02;5.10;99.90
32877;DHT22;19226;51.600;8.034;2022-12-07T10:13:40;5.10;99.90
32877;DHT22;19226;51.600;8.034;2022-12-07T10:16:08;5.10;99.90
32877;DHT22;19226;51.600;8.034;2022-12-07T10:19:26;5.20;99.90
32877;DHT22;19226;51.600;8.034;2022-12-07T10:24:32;5.30;99.90
32877;DHT22;19226;51.600;8.034;2022-12-07T10:27:03;5.30;99.90
32877;DHT22;19226;51.600;8.034;2022-12-07T10:29:33;5.30;99.90
32877;DHT22;19226;51.600;8.034;2022-12-07T10:32:04;5.30;99.90
32877;DHT22;19226;51.600;8.034;2022-12-07T10:34:31;5.30;99.90
32877;DHT22;19226;51.600;8.034;2022-12-07T10:37:14;5.30;99.90
32877;DHT22;19226;51.600;8.034;2022-12-07T10:39:52;5.40;99.90
32877;DHT22;19226;51.600;8.034;2022-12-07T10:42:31;5.40;99.90
32877;DHT22;19226;51.600;8.034;2022-12-07T10:48:08;5.40;99.90
32877;DHT22;19226;51.600;8.034;2022-12-07T11:03:53;5.60;99.90
32877;DHT22;19226;51.600;8.034;2022-12-07T11:19:11;5.70;99.90
32877;DHT22;19226;51.600;8.034;2022-12-07T11:30:19;5.70;99.90
32877;DHT22;19226;51.600;8.034;2022-12-07T11:37:49;5.90;99.90
32877;DHT22;19226;51.600;8.034;2022-12-07T11:43:05;5.90;99.90
32877;DHT22;19226;51.600;8.034;2022-12-07T11:45:33;5.90;99.90
32877;DHT22;19226;51.600;8.034;2022-12-07T11:48:21;5.90;99.90
32877;DHT22;19226;51.600;8.034;2022-12-07T11:50:54;5.90;99.90
32877;DHT22;19226;51.600;8.034;2022-12-07T11:53:25;6.00;99.90
32877;DHT22;19226;51.600;8.034;2022-12-07T11:55:53;6.00;99.90
32877;DHT22;19226;51.600;8.034;2022-12-07T12:03:53;6.00;99.90
32877;DHT22;19226;51.600;8.034;2022-12-07T12:06:22;6.00;99.90
32877;DHT22;19226;51.600;8.034;2022-12-07T12:19:31;5.90;99.90
32877;DHT22;19226;51.600;8.034;2022-12-07T12:22:15;6.00;99.90
32877;DHT22;19226;51.600;8.034;2022-12-07T12:24:42;6.00;99.90
32877;DHT22;19226;51.600;8.034;2022-12-07T12:29:55;6.00;99.90
32877;DHT22;19226;51.600;8.034;2022-12-07T12:32:32;6.00;99.90
32877;DHT22;19226;51.600;8.034;2022-12-07T12:35:02;6.00;99.90
32877;DHT22;19226;51.600;8.034;2022-12-07T12:42:50;6.00;99.90
32877;DHT22;19226;51.600;8.034;2022-12-07T12:45:29;6.00;99.90
32877;DHT22;19226;51.600;8.034;2022-12-07T12:50:40;6.00;99.90
32877;DHT22;19226;51.600;8.034;2022-12-07T12:53:25;6.00;99.90
32877;DHT22;19226;51.600;8.034;2022-12-07T12:56:01;6.00;99.90
32877;DHT22;19226;51.600;8.034;2022-12-07T12:58:32;5.90;99.90
32877;DHT22;19226;51.600;8.034;2022-12-07T13:03:54;5.90;99.90
32877;DHT22;19226;51.600;8.034;2022-12-07T13:08:51;5.80;99.90
32877;DHT22;19226;51.600;8.034;2022-12-07T13:11:18;5.80;99.90
32877;DHT22;19226;51.600;8.034;2022-12-07T13:13:48;5.70;99.90
32877;DHT22;19226;51.600;8.034;2022-12-07T13:18:47;5.70;99.90
32877;DHT22;19226;51.600;8.034;2022-12-07T13:26:19;5.70;99.90
32877;DHT22;19226;51.600;8.034;2022-12-07T13:28:50;5.70;99.90
32877;DHT22;19226;51.600;8.034;2022-12-07T13:34:03;5.70;99.90
32877;DHT22;19226;51.600;8.034;2022-12-07T13:36:47;5.70;99.90
32877;DHT22;19226;51.600;8.034;2022-12-07T13:41:43;5.80;99.90
32877;DHT22;19226;51.600;8.034;2022-12-07T13:44:11;5.80;99.90
32877;DHT22;19226;51.600;8.034;2022-12-07T13:46:48;5.80;99.90
32877;DHT22;19226;51.600;8.034;2022-12-07T13:49:19;5.70;99.90
32877;DHT22;19226;51.600;8.034;2022-12-07T13:54:16;5.80;99.90
32877;DHT22;19226;51.600;8.034;2022-12-07T13:56:55;5.80;99.90
32877;DHT22;19226;51.600;8.034;2022-12-07T13:59:23;5.80;99.90
32877;DHT22;19226;51.600;8.034;2022-12-07T14:01:53;5.70;99.90
32877;DHT22;19226;51.600;8.034;2022-12-07T14:04:35;5.70;99.90
32877;DHT22;19226;51.600;8.034;2022-12-07T14:07:28;5.70;99.90
32877;DHT22;19226;51.600;8.034;2022-12-07T14:09:55;5.70;99.90
32877;DHT22;19226;51.600;8.034;2022-12-07T14:12:22;5.70;99.90
32877;DHT22;19226;51.600;8.034;2022-12-07T14:14:48;5.70;99.90
32877;DHT22;19226;51.600;8.034;2022-12-07T14:17:17;5.70;99.90
32877;DHT22;19226;51.600;8.034;2022-12-07T14:19:52;5.70;99.90
32877;DHT22;19226;51.600;8.034;2022-12-07T14:22:39;5.80;99.90
32877;DHT22;19226;51.600;8.034;2022-12-07T14:25:16;5.70;99.90
32877;DHT22;19226;51.600;8.034;2022-12-07T14:27:53;5.80;99.90
32877;DHT22;19226;51.600;8.034;2022-12-07T14:30:23;5.80;99.90
32877;DHT22;19226;51.600;8.034;2022-12-07T14:32:54;5.80;99.90
32877;DHT22;19226;51.600;8.034;2022-12-07T14:35:20;5.80;99.90
32877;DHT22;19226;51.600;8.034;2022-12-07T14:37:48;5.80;99.90
32877;DHT22;19226;51.600;8.034;2022-12-07T14:40:15;5.80;99.90
32877;DHT22;19226;51.600;8.034;2022-12-07T14:42:42;5.80;99.90
32877;DHT22;19226;51.600;8.034;2022-12-07T14:45:15;5.80;99.90
32877;DHT22;19226;51.600;8.034;2022-12-07T14:47:44;5.70;99.90
32877;DHT22;19226;51.600;8.034;2022-12-07T14:50:11;5.70;99.90
32877;DHT22;19226;51.600;8.034;2022-12-07T14:52:37;5.70;99.90
32877;DHT22;19226;51.600;8.034;2022-12-07T14:55:04;5.70;99.90
32877;DHT22;19226;51.600;8.034;2022-12-07T14:57:30;5.70;99.90
32877;DHT22;19226;51.600;8.034;2022-12-07T14:59:59;5.60;99.90
32877;DHT22;19226;51.600;8.034;2022-12-07T15:02:26;5.60;99.90
32877;DHT22;19226;51.600;8.034;2022-12-07T15:04:52;5.60;99.90
32877;DHT22;19226;51.600;8.034;2022-12-07T15:07:19;5.60;99.90
32877;DHT22;19226;51.600;8.034;2022-12-07T15:09:46;5.50;99.90
32877;DHT22;19226;51.600;8.034;2022-12-07T15:12:15;5.50;99.90
32877;DHT22;19226;51.600;8.034;2022-12-07T15:14:42;5.40;99.90
32877;DHT22;19226;51.600;8.034;2022-12-07T15:17:10;5.50;99.90
32877;DHT22;19226;51.600;8.034;2022-12-07T15:19:39;5.40;99.90
32877;DHT22;19226;51.600;8.034;2022-12-07T15:22:04;5.40;99.90
32877;DHT22;19226;51.600;8.034;2022-12-07T15:27:17;5.30;99.90
32877;DHT22;19226;51.600;8.034;2022-12-07T15:29:44;5.30;99.90
32877;DHT22;19226;51.600;8.034;2022-12-07T15:32:10;5.20;99.90
32877;DHT22;19226;51.600;8.034;2022-12-07T15:37:31;5.10;99.90
32877;DHT22;19226;51.600;8.034;2022-12-07T15:39:57;5.00;99.90
32877;DHT22;19226;51.600;8.034;2022-12-07T15:42:23;5.00;99.90
32877;DHT22;19226;51.600;8.034;2022-12-07T15:44:49;5.00;99.90
32877;DHT22;19226;51.600;8.034;2022-12-07T15:47:38;5.00;99.90
32877;DHT22;19226;51.600;8.034;2022-12-07T15:50:05;4.90;99.90
32877;DHT22;19226;51.600;8.034;2022-12-07T15:52:34;4.90;99.90
32877;DHT22;19226;51.600;8.034;2022-12-07T15:55:00;4.90;99.90
32877;DHT22;19226;51.600;8.034;2022-12-07T15:57:28;4.90;99.90
32877;DHT22;19226;51.600;8.034;2022-12-07T15:59:54;4.90;99.90
32877;DHT22;19226;51.600;8.034;2022-12-07T16:02:23;4.90;99.90
32877;DHT22;19226;51.600;8.034;2022-12-07T16:04:49;4.80;99.90
32877;DHT22;19226;51.600;8.034;2022-12-07T16:07:16;4.80;99.90
32877;DHT22;19226;51.600;8.034;2022-12-07T16:09:42;4.80;99.90
32877;DHT22;19226;51.600;8.034;2022-12-07T16:12:09;4.80;99.90
32877;DHT22;19226;51.600;8.034;2022-12-07T16:14:35;4.70;99.90
32877;DHT22;19226;51.600;8.034;2022-12-07T16:17:08;4.70;99.90
32877;DHT22;19226;51.600;8.034;2022-12-07T16:19:34;4.70;99.90
32877;DHT22;19226;51.600;8.034;2022-12-07T16:22:13;4.70;99.90
32877;DHT22;19226;51.600;8.034;2022-12-07T16:24:39;4.70;99.90
32877;DHT22;19226;51.600;8.034;2022-12-07T16:29:51;4.60;99.90
32877;DHT22;19226;51.600;8.034;2022-12-07T16:35:05;4.60;99.90
32877;DHT22;19226;51.600;8.034;2022-12-07T16:37:31;4.60;99.90
32877;DHT22;19226;51.600;8.034;2022-12-07T16:43:03;4.50;99.90
32877;DHT22;19226;51.600;8.034;2022-12-07T16:45:31;4.50;99.90
32877;DHT22;19226;51.600;8.034;2022-12-07T16:47:57;4.50;99.90
32877;DHT22;19226;51.600;8.034;2022-12-07T16:50:23;4.50;99.90
32877;DHT22;19226;51.600;8.034;2022-12-07T16:55:41;4.40;99.90
32877;DHT22;19226;51.600;8.034;2022-12-07T16:58:07;4.40;99.90
32877;DHT22;19226;51.600;8.034;2022-12-07T17:00:41;4.40;99.90
32877;DHT22;19226;51.600;8.034;2022-12-07T17:03:09;4.40;99.90
32877;DHT22;19226;51.600;8.034;2022-12-07T17:05:39;4.50;99.90
32877;DHT22;19226;51.600;8.034;2022-12-07T17:08:08;4.50;99.90
32877;DHT22;19226;51.600;8.034;2022-12-07T17:10:35;4.40;99.90
32877;DHT22;19226;51.600;8.034;2022-12-07T17:18:59;4.30;99.90
32877;DHT22;19226;51.600;8.034;2022-12-07T17:21:25;4.30;99.90
32877;DHT22;19226;51.600;8.034;2022-12-07T17:23:51;4.30;99.90
32877;DHT22;19226;51.600;8.034;2022-12-07T17:26:19;4.30;99.90
32877;DHT22;19226;51.600;8.034;2022-12-07T17:28:46;4.30;99.90
32877;DHT22;19226;51.600;8.034;2022-12-07T17:34:18;4.40;99.90
32877;DHT22;19226;51.600;8.034;2022-12-07T17:39:32;4.40;99.90
32877;DHT22;19226;51.600;8.034;2022-12-07T17:42:01;4.30;99.90
32877;DHT22;19226;51.600;8.034;2022-12-07T17:44:46;4.40;99.90
32877;DHT22;19226;51.600;8.034;2022-12-07T17:47:12;4.40;99.90
32877;DHT22;19226;51.600;8.034;2022-12-07T17:52:24;4.40;99.90
32877;DHT22;19226;51.600;8.034;2022-12-07T17:55:10;4.40;99.90
32877;DHT22;19226;51.600;8.034;2022-12-07T17:57:36;4.40;99.90
32877;DHT22;19226;51.600;8.034;2022-12-07T18:00:05;4.40;99.90
32877;DHT22;19226;51.600;8.034;2022-12-07T18:02:38;4.50;99.90
32877;DHT22;19226;51.600;8.034;2022-12-07T18:05:04;4.50;99.90
32877;DHT22;19226;51.600;8.034;2022-12-07T18:07:30;4.50;99.90
32877;DHT22;19226;51.600;8.034;2022-12-07T18:10:17;4.50;99.90
32877;DHT22;19226;51.600;8.034;2022-12-07T18:18:53;4.50;99.90
32877;DHT22;19226;51.600;8.034;2022-12-07T18:21:21;4.50;99.90
32877;DHT22;19226;51.600;8.034;2022-12-07T18:23:48;4.50;99.90
32877;DHT22;19226;51.600;8.034;2022-12-07T18:26:22;4.50;99.90
32877;DHT22;19226;51.600;8.034;2022-12-07T18:28:48;4.50;99.90
32877;DHT22;19226;51.600;8.034;2022-12-07T18:36:47;4.50;99.90
32877;DHT22;19226;51.600;8.034;2022-12-07T18:42:01;4.60;99.90
32877;DHT22;19226;51.600;8.034;2022-12-07T18:44:28;4.60;99.90
32877;DHT22;19226;51.600;8.034;2022-12-07T18:46:54;4.60;99.90
32877;DHT22;19226;51.600;8.034;2022-12-07T18:49:20;4.60;99.90
32877;DHT22;19226;51.600;8.034;2022-12-07T18:51:52;4.60;99.90
32877;DHT22;19226;51.600;8.034;2022-12-07T18:57:03;4.60;99.90
32877;DHT22;19226;51.600;8.034;2022-12-07T19:02:38;4.60;99.90
32877;DHT22;19226;51.600;8.034;2022-12-07T19:05:07;4.60;99.90
32877;DHT22;19226;51.600;8.034;2022-12-07T19:07:33;4.60;99.90
32877;DHT22;19226;51.600;8.034;2022-12-07T19:10:01;4.60;99.90
32877;DHT22;19226;51.600;8.034;2022-12-07T19:12:27;4.60;99.90
32877;DHT22;19226;51.600;8.034;2022-12-07T19:14:58;4.70;99.90
32877;DHT22;19226;51.600;8.034;2022-12-07T19:17:24;4.70;99.90
32877;DHT22;19226;51.600;8.034;2022-12-07T19:22:54;4.60;99.90
32877;DHT22;19226;51.600;8.034;2022-12-07T19:25:21;4.60;99.90
32877;DHT22;19226;51.600;8.034;2022-12-07T19:27:47;4.60;99.90
32877;DHT22;19226;51.600;8.034;2022-12-07T19:30:14;4.60;99.90
32877;DHT22;19226;51.600;8.034;2022-12-07T19:32:40;4.50;99.90
32877;DHT22;19226;51.600;8.034;2022-12-07T19:35:06;4.60;99.90
32877;DHT22;19226;51.600;8.034;2022-12-07T19:40:18;4.60;99.90
32877;DHT22;19226;51.600;8.034;2022-12-07T19:45:32;4.60;99.90
32877;DHT22;19226;51.600;8.034;2022-12-07T19:47:59;4.60;99.90
32877;DHT22;19226;51.600;8.034;2022-12-07T19:50:26;4.60;99.90
32877;DHT22;19226;51.600;8.034;2022-12-07T19:52:53;4.50;99.90
32877;DHT22;19226;51.600;8.034;2022-12-07T19:55:23;4.50;99.90
32877;DHT22;19226;51.600;8.034;2022-12-07T20:00:38;4.50;99.90
32877;DHT22;19226;51.600;8.034;2022-12-07T20:03:05;4.50;99.90
32877;DHT22;19226;51.600;8.034;2022-12-07T20:05:39;4.50;99.90
32877;DHT22;19226;51.600;8.034;2022-12-07T20:08:05;4.60;99.90
32877;DHT22;19226;51.600;8.034;2022-12-07T20:10:37;4.60;99.90
32877;DHT22;19226;51.600;8.034;2022-12-07T20:13:03;4.60;99.90
32877;DHT22;19226;51.600;8.034;2022-12-07T20:18:35;4.60;99.90
32877;DHT22;19226;51.600;8.034;2022-12-07T20:21:01;4.60;99.90
32877;DHT22;19226;51.600;8.034;2022-12-07T20:23:33;4.60;99.90
32877;DHT22;19226;51.600;8.034;2022-12-07T20:26:03;4.60;99.90